createdAt,value
2022-11-24T00:00:01.553Z,20.6
2022-11-24T00:05:01.240Z,20.7
2022-11-24T00:10:01.067Z,20.7
2022-11-24T00:15:00.107Z,20.7
2022-11-24T00:20:01.179Z,20.7
2022-11-24T00:25:01.484Z,20.7
2022-11-24T00:30:00.962Z,20.7
2022-11-24T00:35:01.470Z,20.7
2022-11-24T00:40:00.135Z,20.8
2022-11-24T00:45:00.105Z,20.7
2022-11-24T00:50:01.002Z,20.7
2022-11-24T00:55:00.098Z,20.8
2022-11-24T01:00:01.034Z,20.8
2022-11-24T01:05:00.107Z,20.8
2022-11-24T01:10:01.052Z,20.8
2022-11-24T01:15:00.085Z,20.8
2022-11-24T01:20:01.275Z,20.8
2022-11-24T01:25:00.082Z,20.8
2022-11-24T01:30:00.154Z,20.8
2022-11-24T01:35:00.084Z,20.8
2022-11-24T01:40:01.004Z,20.7
2022-11-24T01:45:00.090Z,20.7
2022-11-24T01:50:01.334Z,20.7
2022-11-24T01:55:00.111Z,20.7
2022-11-24T02:00:00.985Z,20.6
2022-11-24T02:05:02.863Z,20.6
2022-11-24T02:15:00.107Z,20.5
2022-11-24T02:20:00.148Z,20.5
2022-11-24T02:25:01.213Z,20.5
2022-11-24T02:30:01.571Z,20.5
2022-11-24T02:35:01.001Z,20.5
2022-11-24T02:40:01.216Z,20.5
2022-11-24T02:45:00.104Z,20.5
2022-11-24T02:50:01.564Z,20.5
2022-11-24T02:55:01.045Z,20.5
2022-11-24T03:00:00.111Z,20.5
2022-11-24T03:05:00.107Z,20.5
2022-11-24T03:10:01.030Z,20.5
2022-11-24T03:15:00.088Z,20.5
2022-11-24T03:20:04.503Z,20.5
2022-11-24T03:25:01.419Z,20.5
2022-11-24T03:30:00.132Z,20.5
2022-11-24T03:35:00.084Z,20.5
2022-11-24T03:40:00.114Z,20.5
2022-11-24T03:45:11.736Z,20.5
2022-11-24T03:50:02.136Z,20.5
2022-11-24T03:55:00.118Z,20.4
2022-11-24T04:00:00.994Z,20.4
2022-11-24T04:05:00.991Z,20.4
2022-11-24T04:10:01.037Z,20.4
2022-11-24T04:15:00.098Z,20.4
2022-11-24T04:20:00.965Z,20.4
2022-11-24T04:25:00.961Z,20.4
2022-11-24T04:30:02.293Z,20.4
2022-11-24T04:35:00.096Z,20.4
2022-11-24T04:40:00.120Z,20.4
2022-11-24T04:45:00.105Z,20.4
2022-11-24T04:50:01.547Z,20.4
2022-11-24T04:55:00.929Z,20.4
2022-11-24T05:00:02.214Z,20.4
2022-11-24T05:05:01.696Z,20.4
2022-11-24T05:10:01.063Z,20.4
2022-11-24T05:15:01.032Z,20.4
2022-11-24T05:20:01.245Z,20.4
2022-11-24T05:25:01.466Z,20.4
2022-11-24T05:30:00.138Z,20.4
2022-11-24T05:35:00.091Z,20.4
2022-11-24T05:40:00.151Z,20.4
2022-11-24T05:45:00.105Z,20.4
2022-11-24T05:50:01.633Z,20.3
2022-11-24T05:55:01.195Z,20.4
2022-11-24T06:00:00.123Z,20.4
2022-11-24T06:05:00.114Z,20.3
2022-11-24T06:10:01.025Z,20.3
2022-11-24T06:15:00.109Z,20.3
2022-11-24T06:20:00.170Z,20.3
2022-11-24T06:25:00.163Z,20.3
2022-11-24T06:30:01.073Z,20.3
2022-11-24T06:35:01.010Z,20.4
2022-11-24T06:40:02.246Z,20.3
2022-11-24T06:45:01.211Z,20.3
2022-11-24T06:50:02.385Z,20.3
2022-11-24T06:55:01.526Z,20.3
2022-11-24T07:00:01.090Z,20.3
2022-11-24T07:05:01.665Z,20.3
2022-11-24T07:10:01.261Z,20.3
2022-11-24T07:15:02.173Z,20.4
2022-11-24T07:20:01.255Z,20.3
2022-11-24T07:25:01.465Z,20.3
2022-11-24T07:30:01.279Z,20.4
2022-11-24T07:35:01.430Z,20.4
2022-11-24T07:40:00.965Z,20.4
2022-11-24T07:45:01.003Z,20.4
2022-11-24T07:50:01.059Z,20.4
2022-11-24T07:55:01.345Z,20.5
2022-11-24T08:00:02.716Z,20.5
2022-11-24T08:05:00.160Z,20.4
2022-11-24T08:10:01.264Z,20.4
2022-11-24T08:15:01.400Z,20.5
2022-11-24T08:20:01.281Z,20.5
2022-11-24T08:25:00.129Z,20.5
2022-11-24T08:30:00.199Z,20.5
2022-11-24T08:35:13.277Z,20.5
2022-11-24T08:40:01.203Z,20.5
2022-11-24T08:45:02.408Z,20.5
2022-11-24T08:50:01.295Z,20.5
2022-11-24T08:55:01.240Z,20.5
2022-11-24T09:00:00.122Z,20.5
2022-11-24T09:05:00.139Z,20.5
2022-11-24T09:10:01.303Z,20.5
2022-11-24T09:15:00.098Z,20.5
2022-11-24T09:20:02.590Z,20.5
2022-11-24T09:25:00.161Z,20.5
2022-11-24T09:30:01.247Z,20.5
2022-11-24T09:35:02.460Z,20.5
2022-11-24T09:40:01.059Z,20.5
2022-11-24T09:45:00.118Z,20.4
2022-11-24T09:50:02.207Z,20.4
2022-11-24T09:55:01.235Z,20.4
2022-11-24T10:00:01.276Z,20.4
2022-11-24T10:05:01.067Z,20.4
2022-11-24T10:15:01.276Z,20.4
2022-11-24T10:20:01.004Z,20.4
2022-11-24T10:25:01.242Z,20.4
2022-11-24T10:30:01.246Z,20.4
2022-11-24T10:35:01.319Z,20.4
2022-11-24T10:40:01.239Z,20.4
2022-11-24T10:45:02.537Z,20.4
2022-11-24T10:50:01.254Z,20.4
2022-11-24T10:55:00.114Z,20.3
2022-11-24T11:00:01.309Z,20.4
2022-11-24T11:05:01.015Z,20.3
2022-11-24T11:10:01.322Z,20.4
2022-11-24T11:15:00.135Z,20.3
2022-11-24T11:20:02.435Z,20.4
2022-11-24T11:25:01.049Z,20.3
2022-11-24T11:35:00.089Z,20.4
2022-11-24T11:40:01.634Z,20.3
2022-11-24T11:45:00.102Z,20.3
2022-11-24T11:50:01.005Z,20.3
2022-11-24T11:55:01.219Z,20.4
2022-11-24T12:00:03.932Z,20.3
2022-11-24T12:05:00.106Z,20.3
2022-11-24T12:10:01.560Z,20.3
2022-11-24T12:15:01.074Z,20.3
2022-11-24T12:20:00.138Z,20.3
2022-11-24T12:25:00.185Z,20.4
2022-11-24T12:30:01.342Z,20.4
2022-11-24T12:35:00.093Z,20.4
2022-11-24T12:40:01.238Z,20.3
2022-11-24T12:45:01.198Z,20.4
2022-11-24T12:50:01.066Z,20.3
2022-11-24T12:55:00.987Z,20.3
2022-11-24T13:00:00.990Z,20.1
2022-11-24T13:05:01.431Z,20.0
2022-11-24T13:10:01.290Z,19.8
2022-11-24T13:15:00.974Z,19.8
2022-11-24T13:20:00.129Z,19.8
2022-11-24T13:25:01.183Z,19.8
2022-11-24T13:35:00.097Z,19.8
2022-11-24T13:40:01.010Z,19.9
2022-11-24T13:45:01.475Z,19.9
2022-11-24T13:50:01.628Z,20.0
2022-11-24T13:55:01.019Z,20.0
2022-11-24T14:00:01.541Z,20.0
2022-11-24T14:05:00.111Z,20.0
2022-11-24T14:10:01.025Z,20.0
2022-11-24T14:15:00.114Z,20.0
2022-11-24T14:20:00.139Z,20.1
2022-11-24T14:25:01.016Z,20.1
2022-11-24T14:30:01.916Z,20.0
2022-11-24T14:35:01.324Z,20.0
2022-11-24T14:40:00.115Z,20.1
2022-11-24T14:45:01.307Z,20.2
2022-11-24T14:50:00.221Z,20.1
2022-11-24T14:55:12.212Z,20.2
2022-11-24T15:00:03.177Z,20.3
2022-11-24T15:05:03.506Z,20.3
2022-11-24T15:10:00.213Z,20.2
2022-11-24T15:15:01.459Z,20.2
2022-11-24T15:20:01.036Z,20.3
2022-11-24T15:25:00.111Z,20.3
2022-11-24T15:30:01.271Z,20.3
2022-11-24T15:35:00.161Z,20.3
2022-11-24T15:40:01.023Z,20.3
2022-11-24T15:45:01.007Z,20.3
2022-11-24T15:50:01.306Z,20.3
2022-11-24T15:55:00.107Z,20.4
2022-11-24T16:00:01.064Z,20.4
2022-11-24T16:05:00.119Z,20.4
2022-11-24T16:10:01.464Z,20.4
2022-11-24T16:15:01.036Z,20.4
2022-11-24T16:20:01.246Z,20.4
2022-11-24T16:25:01.040Z,20.3
2022-11-24T16:30:02.176Z,20.4
2022-11-24T16:35:02.209Z,20.4
2022-11-24T16:40:01.259Z,20.4
2022-11-24T16:45:00.130Z,20.4
2022-11-24T16:50:01.697Z,20.4
2022-11-24T16:55:00.138Z,20.4
2022-11-24T17:00:01.764Z,20.4
2022-11-24T17:05:00.999Z,20.4
2022-11-24T17:10:01.311Z,20.4
2022-11-24T17:15:24.865Z,20.4
2022-11-24T17:20:01.273Z,20.4
2022-11-24T17:25:01.492Z,20.5
2022-11-24T17:30:01.087Z,20.5
2022-11-24T17:35:01.528Z,20.5
2022-11-24T17:40:26.562Z,20.5
2022-11-24T17:45:01.867Z,20.5
2022-11-24T17:50:01.573Z,20.5
2022-11-24T17:55:00.357Z,20.4
2022-11-24T18:00:01.253Z,20.5
2022-11-24T18:05:00.117Z,20.5
2022-11-24T18:10:01.037Z,20.5
2022-11-24T18:15:01.287Z,20.5
2022-11-24T18:20:01.314Z,20.5
2022-11-24T18:25:00.108Z,20.5
2022-11-24T18:30:01.793Z,20.5
2022-11-24T18:35:00.129Z,20.5
2022-11-24T18:40:01.255Z,20.5
2022-11-24T18:45:01.462Z,20.5
2022-11-24T18:50:01.307Z,20.5
2022-11-24T18:55:01.335Z,20.5
2022-11-24T19:00:01.041Z,20.5
2022-11-24T19:05:01.259Z,20.5
2022-11-24T19:10:02.169Z,20.5
2022-11-24T19:15:01.306Z,20.6
2022-11-24T19:20:01.555Z,20.6
2022-11-24T19:25:01.048Z,20.6
2022-11-24T19:30:01.314Z,20.6
2022-11-24T19:35:02.113Z,20.6
2022-11-24T19:40:02.377Z,20.6
2022-11-24T19:45:00.128Z,20.6
2022-11-24T19:50:02.869Z,20.6
2022-11-24T19:55:00.966Z,20.6
2022-11-24T20:00:02.934Z,20.6
2022-11-24T20:05:01.310Z,20.7
2022-11-24T20:10:06.197Z,20.6
2022-11-24T20:15:01.236Z,20.6
2022-11-24T20:20:01.034Z,20.6
2022-11-24T20:25:01.514Z,20.6
2022-11-24T20:30:01.110Z,20.6
2022-11-24T20:35:00.110Z,20.6
2022-11-24T20:40:01.076Z,20.6
2022-11-24T20:45:01.011Z,20.7
2022-11-24T20:50:01.343Z,20.6
2022-11-24T20:55:01.229Z,20.7
2022-11-24T21:00:00.998Z,20.7
2022-11-24T21:05:01.060Z,20.7
2022-11-24T21:10:01.258Z,20.7
2022-11-24T21:15:00.098Z,20.7
2022-11-24T21:20:01.457Z,20.7
2022-11-24T21:25:00.102Z,20.8
2022-11-24T21:30:01.079Z,20.7
2022-11-24T21:35:01.036Z,20.7
2022-11-24T21:40:01.508Z,20.7
2022-11-24T21:45:00.983Z,20.7
2022-11-24T21:50:01.056Z,20.7
2022-11-24T21:55:02.562Z,20.7
2022-11-24T22:00:01.327Z,20.7
2022-11-24T22:05:00.126Z,20.8
2022-11-24T22:10:01.252Z,20.7
2022-11-24T22:15:00.108Z,20.8
2022-11-24T22:20:00.147Z,20.7
2022-11-24T22:25:00.096Z,20.8
2022-11-24T22:30:01.064Z,20.8
2022-11-24T22:35:01.681Z,20.8
2022-11-24T22:40:01.205Z,20.8
2022-11-24T22:45:01.240Z,20.7
2022-11-24T22:50:01.038Z,20.7
2022-11-24T22:55:01.444Z,20.8
2022-11-24T23:00:01.097Z,20.7
2022-11-24T23:05:01.487Z,20.8
2022-11-24T23:15:00.957Z,20.8
2022-11-24T23:20:04.417Z,20.8
2022-11-24T23:25:00.113Z,20.8
2022-11-24T23:30:00.143Z,20.8
2022-11-24T23:35:02.684Z,20.8
2022-11-24T23:40:01.302Z,20.8
2022-11-24T23:45:01.016Z,20.8
2022-11-24T23:50:01.989Z,20.7
2022-11-24T23:55:01.024Z,20.8
